sensor_id;sensor_type;location;lat;lon;timestamp;P1;durP1;ratioP1;P2;durP2;ratioP2
5060;SDS011;2549;52.128;21.068;2023-03-01T00:01:18;47.80;;;22.33;;
5060;SDS011;2549;52.128;21.068;2023-03-01T00:03:47;51.40;;;22.05;;
5060;SDS011;2549;52.128;21.068;2023-03-01T00:06:14;51.13;;;22.50;;
5060;SDS011;2549;52.128;21.068;2023-03-01T00:08:41;42.13;;;22.67;;
5060;SDS011;2549;52.128;21.068;2023-03-01T00:11:13;46.47;;;21.75;;
5060;SDS011;2549;52.128;21.068;2023-03-01T00:13:43;50.67;;;21.67;;
5060;SDS011;2549;52.128;21.068;2023-03-01T00:16:19;45.28;;;20.58;;
5060;SDS011;2549;52.128;21.068;2023-03-01T00:18:48;48.70;;;21.00;;
5060;SDS011;2549;52.128;21.068;2023-03-01T00:21:15;45.40;;;22.65;;
5060;SDS011;2549;52.128;21.068;2023-03-01T00:23:42;46.45;;;21.23;;
5060;SDS011;2549;52.128;21.068;2023-03-01T00:26:10;47.55;;;22.27;;
5060;SDS011;2549;52.128;21.068;2023-03-01T00:28:40;45.50;;;19.58;;
5060;SDS011;2549;52.128;21.068;2023-03-01T00:31:12;49.67;;;22.80;;
5060;SDS011;2549;52.128;21.068;2023-03-01T00:33:41;44.05;;;20.63;;
5060;SDS011;2549;52.128;21.068;2023-03-01T00:36:09;51.35;;;21.08;;
5060;SDS011;2549;52.128;21.068;2023-03-01T00:38:42;43.00;;;19.40;;
5060;SDS011;2549;52.128;21.068;2023-03-01T00:41:12;44.20;;;19.88;;
5060;SDS011;2549;52.128;21.068;2023-03-01T00:43:40;48.67;;;21.30;;
5060;SDS011;2549;52.128;21.068;2023-03-01T00:46:09;49.55;;;21.40;;
5060;SDS011;2549;52.128;21.068;2023-03-01T00:48:41;42.67;;;20.02;;
5060;SDS011;2549;52.128;21.068;2023-03-01T00:51:08;39.13;;;19.30;;
5060;SDS011;2549;52.128;21.068;2023-03-01T00:53:36;41.33;;;19.48;;
5060;SDS011;2549;52.128;21.068;2023-03-01T00:56:04;38.13;;;19.13;;
5060;SDS011;2549;52.128;21.068;2023-03-01T00:58:32;37.47;;;19.17;;
5060;SDS011;2549;52.128;21.068;2023-03-01T01:00:59;39.75;;;19.48;;
5060;SDS011;2549;52.128;21.068;2023-03-01T01:03:27;34.50;;;17.70;;
5060;SDS011;2549;52.128;21.068;2023-03-01T01:05:53;36.08;;;18.85;;
5060;SDS011;2549;52.128;21.068;2023-03-01T01:08:20;45.70;;;18.98;;
5060;SDS011;2549;52.128;21.068;2023-03-01T01:10:48;39.58;;;18.17;;
5060;SDS011;2549;52.128;21.068;2023-03-01T01:13:14;39.53;;;19.35;;
5060;SDS011;2549;52.128;21.068;2023-03-01T01:15:41;43.03;;;18.77;;
5060;SDS011;2549;52.128;21.068;2023-03-01T01:18:08;41.13;;;18.45;;
5060;SDS011;2549;52.128;21.068;2023-03-01T01:20:36;47.65;;;19.30;;
5060;SDS011;2549;52.128;21.068;2023-03-01T01:23:05;46.63;;;18.50;;
5060;SDS011;2549;52.128;21.068;2023-03-01T01:25:34;41.00;;;19.17;;
5060;SDS011;2549;52.128;21.068;2023-03-01T01:28:02;43.17;;;18.35;;
5060;SDS011;2549;52.128;21.068;2023-03-01T01:30:29;35.28;;;16.88;;
5060;SDS011;2549;52.128;21.068;2023-03-01T01:32:56;37.90;;;17.48;;
5060;SDS011;2549;52.128;21.068;2023-03-01T01:35:23;43.20;;;18.83;;
5060;SDS011;2549;52.128;21.068;2023-03-01T01:37:50;43.72;;;18.52;;
5060;SDS011;2549;52.128;21.068;2023-03-01T01:40:17;43.63;;;20.38;;
5060;SDS011;2549;52.128;21.068;2023-03-01T01:42:45;35.70;;;17.23;;
5060;SDS011;2549;52.128;21.068;2023-03-01T01:45:24;38.78;;;18.55;;
5060;SDS011;2549;52.128;21.068;2023-03-01T01:47:55;42.90;;;19.20;;
5060;SDS011;2549;52.128;21.068;2023-03-01T01:50:29;44.78;;;18.42;;
5060;SDS011;2549;52.128;21.068;2023-03-01T01:53:05;39.55;;;19.38;;
5060;SDS011;2549;52.128;21.068;2023-03-01T01:55:40;36.72;;;18.58;;
5060;SDS011;2549;52.128;21.068;2023-03-01T01:58:15;42.25;;;18.55;;
5060;SDS011;2549;52.128;21.068;2023-03-01T02:00:44;45.63;;;18.48;;
5060;SDS011;2549;52.128;21.068;2023-03-01T02:03:13;35.22;;;17.70;;
5060;SDS011;2549;52.128;21.068;2023-03-01T02:08:43;36.88;;;18.55;;
5060;SDS011;2549;52.128;21.068;2023-03-01T02:11:12;44.42;;;19.27;;
5060;SDS011;2549;52.128;21.068;2023-03-01T02:13:40;36.88;;;17.98;;
5060;SDS011;2549;52.128;21.068;2023-03-01T02:16:09;35.08;;;17.13;;
5060;SDS011;2549;52.128;21.068;2023-03-01T02:18:39;41.58;;;18.50;;
5060;SDS011;2549;52.128;21.068;2023-03-01T02:23:56;43.75;;;18.70;;
5060;SDS011;2549;52.128;21.068;2023-03-01T02:29:23;39.30;;;17.55;;
5060;SDS011;2549;52.128;21.068;2023-03-01T02:31:51;50.30;;;19.95;;
5060;SDS011;2549;52.128;21.068;2023-03-01T02:34:23;42.33;;;19.13;;
5060;SDS011;2549;52.128;21.068;2023-03-01T02:36:57;45.53;;;18.05;;
5060;SDS011;2549;52.128;21.068;2023-03-01T02:39:35;38.90;;;18.80;;
5060;SDS011;2549;52.128;21.068;2023-03-01T02:42:14;43.25;;;19.75;;
5060;SDS011;2549;52.128;21.068;2023-03-01T02:44:48;41.65;;;20.17;;
5060;SDS011;2549;52.128;21.068;2023-03-01T02:47:16;47.40;;;19.42;;
5060;SDS011;2549;52.128;21.068;2023-03-01T02:49:43;44.72;;;19.58;;
5060;SDS011;2549;52.128;21.068;2023-03-01T02:57:33;38.42;;;17.35;;
5060;SDS011;2549;52.128;21.068;2023-03-01T03:00:06;41.55;;;19.50;;
5060;SDS011;2549;52.128;21.068;2023-03-01T03:02:49;42.65;;;18.88;;
5060;SDS011;2549;52.128;21.068;2023-03-01T03:05:19;43.35;;;19.20;;
5060;SDS011;2549;52.128;21.068;2023-03-01T03:07:49;41.25;;;19.80;;
5060;SDS011;2549;52.128;21.068;2023-03-01T03:10:21;46.55;;;19.00;;
5060;SDS011;2549;52.128;21.068;2023-03-01T03:12:54;49.10;;;20.67;;
5060;SDS011;2549;52.128;21.068;2023-03-01T03:15:26;41.15;;;19.35;;
5060;SDS011;2549;52.128;21.068;2023-03-01T03:17:55;40.08;;;19.63;;
5060;SDS011;2549;52.128;21.068;2023-03-01T03:20:24;42.72;;;21.35;;
5060;SDS011;2549;52.128;21.068;2023-03-01T03:22:54;43.85;;;19.65;;
5060;SDS011;2549;52.128;21.068;2023-03-01T03:25:22;34.80;;;17.05;;
5060;SDS011;2549;52.128;21.068;2023-03-01T03:27:50;42.65;;;18.02;;
5060;SDS011;2549;52.128;21.068;2023-03-01T03:30:27;34.90;;;16.67;;
5060;SDS011;2549;52.128;21.068;2023-03-01T03:32:56;36.78;;;17.85;;
5060;SDS011;2549;52.128;21.068;2023-03-01T03:35:26;45.17;;;19.75;;
5060;SDS011;2549;52.128;21.068;2023-03-01T03:38:01;44.15;;;17.98;;
5060;SDS011;2549;52.128;21.068;2023-03-01T03:40:37;37.90;;;18.85;;
5060;SDS011;2549;52.128;21.068;2023-03-01T03:43:15;44.78;;;17.90;;
5060;SDS011;2549;52.128;21.068;2023-03-01T03:45:45;45.13;;;17.95;;
5060;SDS011;2549;52.128;21.068;2023-03-01T03:48:13;36.58;;;16.88;;
5060;SDS011;2549;52.128;21.068;2023-03-01T03:50:41;36.67;;;18.02;;
5060;SDS011;2549;52.128;21.068;2023-03-01T03:53:13;34.50;;;17.70;;
5060;SDS011;2549;52.128;21.068;2023-03-01T03:55:40;41.70;;;18.00;;
5060;SDS011;2549;52.128;21.068;2023-03-01T03:58:08;37.97;;;16.75;;
5060;SDS011;2549;52.128;21.068;2023-03-01T04:00:37;40.80;;;19.08;;
5060;SDS011;2549;52.128;21.068;2023-03-01T04:03:07;36.28;;;17.73;;
5060;SDS011;2549;52.128;21.068;2023-03-01T04:05:35;34.97;;;17.30;;
5060;SDS011;2549;52.128;21.068;2023-03-01T04:08:02;40.13;;;17.25;;
5060;SDS011;2549;52.128;21.068;2023-03-01T04:10:37;47.65;;;17.10;;
5060;SDS011;2549;52.128;21.068;2023-03-01T04:13:07;36.83;;;16.35;;
5060;SDS011;2549;52.128;21.068;2023-03-01T04:15:36;34.28;;;16.83;;
5060;SDS011;2549;52.128;21.068;2023-03-01T04:18:04;47.65;;;19.20;;
5060;SDS011;2549;52.128;21.068;2023-03-01T04:20:32;36.78;;;18.20;;
5060;SDS011;2549;52.128;21.068;2023-03-01T04:23:03;37.38;;;16.30;;
5060;SDS011;2549;52.128;21.068;2023-03-01T04:25:41;44.65;;;17.33;;
5060;SDS011;2549;52.128;21.068;2023-03-01T04:28:11;41.58;;;17.38;;
5060;SDS011;2549;52.128;21.068;2023-03-01T04:30:38;46.03;;;18.48;;
5060;SDS011;2549;52.128;21.068;2023-03-01T04:33:06;35.22;;;16.75;;
5060;SDS011;2549;52.128;21.068;2023-03-01T04:35:35;37.42;;;17.75;;
5060;SDS011;2549;52.128;21.068;2023-03-01T04:38:04;37.53;;;17.45;;
5060;SDS011;2549;52.128;21.068;2023-03-01T04:40:32;45.78;;;18.15;;
5060;SDS011;2549;52.128;21.068;2023-03-01T04:42:59;34.67;;;16.70;;
5060;SDS011;2549;52.128;21.068;2023-03-01T04:45:26;41.33;;;17.98;;
5060;SDS011;2549;52.128;21.068;2023-03-01T04:47:54;41.50;;;17.67;;
5060;SDS011;2549;52.128;21.068;2023-03-01T04:50:24;34.03;;;16.23;;
5060;SDS011;2549;52.128;21.068;2023-03-01T04:52:52;41.83;;;16.70;;
5060;SDS011;2549;52.128;21.068;2023-03-01T04:55:19;35.42;;;16.70;;
5060;SDS011;2549;52.128;21.068;2023-03-01T04:57:46;34.08;;;16.63;;
5060;SDS011;2549;52.128;21.068;2023-03-01T05:00:14;32.50;;;16.45;;
5060;SDS011;2549;52.128;21.068;2023-03-01T05:02:52;39.85;;;16.85;;
5060;SDS011;2549;52.128;21.068;2023-03-01T05:05:25;37.50;;;15.63;;
5060;SDS011;2549;52.128;21.068;2023-03-01T05:07:55;43.33;;;17.98;;
5060;SDS011;2549;52.128;21.068;2023-03-01T05:10:24;32.05;;;15.88;;
5060;SDS011;2549;52.128;21.068;2023-03-01T05:12:55;38.72;;;15.40;;
5060;SDS011;2549;52.128;21.068;2023-03-01T05:15:26;37.15;;;15.63;;
5060;SDS011;2549;52.128;21.068;2023-03-01T05:17:55;39.65;;;15.63;;
5060;SDS011;2549;52.128;21.068;2023-03-01T05:20:26;33.38;;;16.67;;
5060;SDS011;2549;52.128;21.068;2023-03-01T05:22:56;39.30;;;15.52;;
5060;SDS011;2549;52.128;21.068;2023-03-01T05:25:25;33.03;;;16.40;;
5060;SDS011;2549;52.128;21.068;2023-03-01T05:27:53;33.58;;;15.13;;
5060;SDS011;2549;52.128;21.068;2023-03-01T05:30:20;29.05;;;14.80;;
5060;SDS011;2549;52.128;21.068;2023-03-01T05:32:48;32.92;;;15.18;;
5060;SDS011;2549;52.128;21.068;2023-03-01T05:35:22;32.30;;;16.77;;
5060;SDS011;2549;52.128;21.068;2023-03-01T05:37:54;35.63;;;14.90;;
5060;SDS011;2549;52.128;21.068;2023-03-01T05:40:22;30.13;;;14.73;;
5060;SDS011;2549;52.128;21.068;2023-03-01T05:42:52;30.42;;;15.73;;
5060;SDS011;2549;52.128;21.068;2023-03-01T05:45:21;25.65;;;13.70;;
5060;SDS011;2549;52.128;21.068;2023-03-01T05:47:50;43.35;;;16.25;;
5060;SDS011;2549;52.128;21.068;2023-03-01T05:50:22;34.50;;;16.48;;
5060;SDS011;2549;52.128;21.068;2023-03-01T05:55:26;31.42;;;13.65;;
5060;SDS011;2549;52.128;21.068;2023-03-01T05:57:54;33.33;;;15.90;;
5060;SDS011;2549;52.128;21.068;2023-03-01T06:00:23;39.05;;;16.13;;
5060;SDS011;2549;52.128;21.068;2023-03-01T06:02:50;33.90;;;15.68;;
5060;SDS011;2549;52.128;21.068;2023-03-01T06:05:19;31.00;;;16.23;;
5060;SDS011;2549;52.128;21.068;2023-03-01T06:07:47;31.08;;;15.23;;
5060;SDS011;2549;52.128;21.068;2023-03-01T06:10:14;32.80;;;16.15;;
5060;SDS011;2549;52.128;21.068;2023-03-01T06:12:42;40.03;;;15.70;;
5060;SDS011;2549;52.128;21.068;2023-03-01T06:15:10;35.30;;;16.63;;
5060;SDS011;2549;52.128;21.068;2023-03-01T06:17:40;38.97;;;16.40;;
5060;SDS011;2549;52.128;21.068;2023-03-01T06:20:10;32.95;;;16.17;;
5060;SDS011;2549;52.128;21.068;2023-03-01T06:22:45;34.45;;;16.95;;
5060;SDS011;2549;52.128;21.068;2023-03-01T06:25:14;33.35;;;15.13;;
5060;SDS011;2549;52.128;21.068;2023-03-01T06:27:43;37.13;;;15.35;;
5060;SDS011;2549;52.128;21.068;2023-03-01T06:30:11;42.25;;;16.77;;
5060;SDS011;2549;52.128;21.068;2023-03-01T06:32:42;28.08;;;14.20;;
5060;SDS011;2549;52.128;21.068;2023-03-01T06:35:10;37.78;;;15.75;;
5060;SDS011;2549;52.128;21.068;2023-03-01T06:37:39;28.80;;;15.50;;
5060;SDS011;2549;52.128;21.068;2023-03-01T06:40:08;42.90;;;16.58;;
5060;SDS011;2549;52.128;21.068;2023-03-01T06:42:38;32.60;;;14.85;;
5060;SDS011;2549;52.128;21.068;2023-03-01T06:45:06;32.75;;;15.43;;
5060;SDS011;2549;52.128;21.068;2023-03-01T06:47:34;29.30;;;13.98;;
5060;SDS011;2549;52.128;21.068;2023-03-01T06:50:01;37.13;;;15.25;;
5060;SDS011;2549;52.128;21.068;2023-03-01T06:52:29;34.22;;;14.25;;
5060;SDS011;2549;52.128;21.068;2023-03-01T06:54:55;30.77;;;15.77;;
5060;SDS011;2549;52.128;21.068;2023-03-01T06:57:22;31.00;;;15.52;;
5060;SDS011;2549;52.128;21.068;2023-03-01T06:59:49;35.10;;;15.85;;
5060;SDS011;2549;52.128;21.068;2023-03-01T07:02:16;36.03;;;17.58;;
5060;SDS011;2549;52.128;21.068;2023-03-01T07:04:43;32.05;;;15.52;;
5060;SDS011;2549;52.128;21.068;2023-03-01T07:07:10;34.17;;;15.63;;
5060;SDS011;2549;52.128;21.068;2023-03-01T07:09:37;40.47;;;16.40;;
5060;SDS011;2549;52.128;21.068;2023-03-01T07:12:04;34.00;;;14.20;;
5060;SDS011;2549;52.128;21.068;2023-03-01T07:14:31;32.33;;;15.75;;
5060;SDS011;2549;52.128;21.068;2023-03-01T07:16:58;26.98;;;15.10;;
5060;SDS011;2549;52.128;21.068;2023-03-01T07:19:25;34.63;;;14.73;;
5060;SDS011;2549;52.128;21.068;2023-03-01T07:21:52;36.72;;;16.50;;
5060;SDS011;2549;52.128;21.068;2023-03-01T07:24:19;33.85;;;15.98;;
5060;SDS011;2549;52.128;21.068;2023-03-01T07:26:48;43.22;;;15.93;;
5060;SDS011;2549;52.128;21.068;2023-03-01T07:29:19;32.85;;;16.00;;
5060;SDS011;2549;52.128;21.068;2023-03-01T07:31:46;33.75;;;16.60;;
5060;SDS011;2549;52.128;21.068;2023-03-01T07:34:13;36.75;;;15.90;;
5060;SDS011;2549;52.128;21.068;2023-03-01T07:36:40;34.80;;;15.98;;
5060;SDS011;2549;52.128;21.068;2023-03-01T07:39:09;37.50;;;17.58;;
5060;SDS011;2549;52.128;21.068;2023-03-01T07:41:37;33.55;;;14.50;;
5060;SDS011;2549;52.128;21.068;2023-03-01T07:44:04;34.92;;;16.25;;
5060;SDS011;2549;52.128;21.068;2023-03-01T07:46:31;44.80;;;18.25;;
5060;SDS011;2549;52.128;21.068;2023-03-01T07:48:58;32.22;;;15.30;;
5060;SDS011;2549;52.128;21.068;2023-03-01T07:51:25;29.45;;;14.85;;
5060;SDS011;2549;52.128;21.068;2023-03-01T07:53:52;31.20;;;13.98;;
5060;SDS011;2549;52.128;21.068;2023-03-01T07:56:19;35.38;;;14.88;;
5060;SDS011;2549;52.128;21.068;2023-03-01T07:58:48;30.80;;;14.27;;
5060;SDS011;2549;52.128;21.068;2023-03-01T08:01:18;34.08;;;15.88;;
5060;SDS011;2549;52.128;21.068;2023-03-01T08:03:47;34.15;;;15.98;;
5060;SDS011;2549;52.128;21.068;2023-03-01T08:06:14;27.35;;;14.20;;
5060;SDS011;2549;52.128;21.068;2023-03-01T08:08:43;28.10;;;14.38;;
5060;SDS011;2549;52.128;21.068;2023-03-01T08:11:10;33.00;;;16.77;;
5060;SDS011;2549;52.128;21.068;2023-03-01T08:13:38;33.95;;;14.73;;
5060;SDS011;2549;52.128;21.068;2023-03-01T08:16:07;27.48;;;13.52;;
5060;SDS011;2549;52.128;21.068;2023-03-01T08:18:39;30.90;;;14.63;;
5060;SDS011;2549;52.128;21.068;2023-03-01T08:21:08;32.28;;;14.98;;
5060;SDS011;2549;52.128;21.068;2023-03-01T08:23:37;32.47;;;14.40;;
5060;SDS011;2549;52.128;21.068;2023-03-01T08:26:11;30.30;;;14.43;;
5060;SDS011;2549;52.128;21.068;2023-03-01T08:28:40;32.05;;;13.93;;
5060;SDS011;2549;52.128;21.068;2023-03-01T08:33:50;32.55;;;14.55;;
5060;SDS011;2549;52.128;21.068;2023-03-01T08:36:25;30.98;;;12.68;;
5060;SDS011;2549;52.128;21.068;2023-03-01T08:38:54;47.10;;;15.88;;
5060;SDS011;2549;52.128;21.068;2023-03-01T08:41:21;28.08;;;13.85;;
5060;SDS011;2549;52.128;21.068;2023-03-01T08:43:48;29.35;;;13.15;;
5060;SDS011;2549;52.128;21.068;2023-03-01T08:46:15;33.05;;;13.38;;
5060;SDS011;2549;52.128;21.068;2023-03-01T08:48:43;28.65;;;13.95;;
5060;SDS011;2549;52.128;21.068;2023-03-01T08:51:14;33.10;;;11.80;;
5060;SDS011;2549;52.128;21.068;2023-03-01T08:53:43;26.88;;;12.07;;
5060;SDS011;2549;52.128;21.068;2023-03-01T08:56:11;27.50;;;12.27;;
5060;SDS011;2549;52.128;21.068;2023-03-01T08:58:38;27.83;;;12.60;;
5060;SDS011;2549;52.128;21.068;2023-03-01T09:01:06;33.25;;;13.13;;
5060;SDS011;2549;52.128;21.068;2023-03-01T09:03:35;23.83;;;12.40;;
5060;SDS011;2549;52.128;21.068;2023-03-01T09:06:03;24.75;;;12.70;;
5060;SDS011;2549;52.128;21.068;2023-03-01T09:08:33;24.60;;;12.15;;
5060;SDS011;2549;52.128;21.068;2023-03-01T09:11:05;26.35;;;12.45;;
5060;SDS011;2549;52.128;21.068;2023-03-01T09:13:34;32.53;;;11.45;;
5060;SDS011;2549;52.128;21.068;2023-03-01T09:16:02;24.13;;;11.85;;
5060;SDS011;2549;52.128;21.068;2023-03-01T09:18:31;20.88;;;10.07;;
5060;SDS011;2549;52.128;21.068;2023-03-01T09:23:28;25.63;;;11.40;;
5060;SDS011;2549;52.128;21.068;2023-03-01T09:25:55;26.35;;;11.00;;
5060;SDS011;2549;52.128;21.068;2023-03-01T09:28:22;23.60;;;9.73;;
5060;SDS011;2549;52.128;21.068;2023-03-01T09:30:57;21.50;;;11.73;;
5060;SDS011;2549;52.128;21.068;2023-03-01T09:33:26;20.90;;;11.30;;
5060;SDS011;2549;52.128;21.068;2023-03-01T09:35:57;20.88;;;11.48;;
5060;SDS011;2549;52.128;21.068;2023-03-01T09:38:29;28.33;;;12.05;;
5060;SDS011;2549;52.128;21.068;2023-03-01T09:40:57;22.58;;;11.45;;
5060;SDS011;2549;52.128;21.068;2023-03-01T09:46:07;23.98;;;11.52;;
5060;SDS011;2549;52.128;21.068;2023-03-01T09:48:43;18.02;;;10.27;;
5060;SDS011;2549;52.128;21.068;2023-03-01T09:51:35;22.45;;;10.50;;
5060;SDS011;2549;52.128;21.068;2023-03-01T09:54:03;24.23;;;11.15;;
5060;SDS011;2549;52.128;21.068;2023-03-01T09:56:39;15.95;;;10.32;;
5060;SDS011;2549;52.128;21.068;2023-03-01T09:59:23;22.17;;;10.75;;
5060;SDS011;2549;52.128;21.068;2023-03-01T10:09:45;21.27;;;11.50;;
5060;SDS011;2549;52.128;21.068;2023-03-01T10:12:17;22.33;;;10.90;;
5060;SDS011;2549;52.128;21.068;2023-03-01T10:20:25;20.67;;;12.13;;
5060;SDS011;2549;52.128;21.068;2023-03-01T10:22:56;20.08;;;10.95;;
5060;SDS011;2549;52.128;21.068;2023-03-01T10:28:53;21.63;;;11.10;;
5060;SDS011;2549;52.128;21.068;2023-03-01T10:31:12;24.25;;;11.85;;
5060;SDS011;2549;52.128;21.068;2023-03-01T10:33:44;21.48;;;10.18;;
5060;SDS011;2549;52.128;21.068;2023-03-01T10:36:14;25.58;;;11.35;;
5060;SDS011;2549;52.128;21.068;2023-03-01T10:44:38;18.92;;;10.63;;
5060;SDS011;2549;52.128;21.068;2023-03-01T10:50:05;29.90;;;12.27;;
5060;SDS011;2549;52.128;21.068;2023-03-01T10:52:43;19.25;;;9.65;;
5060;SDS011;2549;52.128;21.068;2023-03-01T11:03:16;21.23;;;11.15;;
5060;SDS011;2549;52.128;21.068;2023-03-01T11:05:52;25.48;;;11.80;;
5060;SDS011;2549;52.128;21.068;2023-03-01T11:11:21;21.02;;;10.80;;
5060;SDS011;2549;52.128;21.068;2023-03-01T11:16:34;19.95;;;10.00;;
5060;SDS011;2549;52.128;21.068;2023-03-01T11:21:40;23.88;;;10.35;;
5060;SDS011;2549;52.128;21.068;2023-03-01T11:24:22;20.15;;;9.63;;
5060;SDS011;2549;52.128;21.068;2023-03-01T11:26:55;22.92;;;10.30;;
5060;SDS011;2549;52.128;21.068;2023-03-01T11:29:27;18.27;;;9.77;;
5060;SDS011;2549;52.128;21.068;2023-03-01T11:32:13;22.55;;;8.88;;
5060;SDS011;2549;52.128;21.068;2023-03-01T11:34:49;23.17;;;10.98;;
5060;SDS011;2549;52.128;21.068;2023-03-01T11:40:16;21.05;;;9.50;;
5060;SDS011;2549;52.128;21.068;2023-03-01T11:42:53;19.05;;;9.50;;
5060;SDS011;2549;52.128;21.068;2023-03-01T11:45:23;18.67;;;10.75;;
5060;SDS011;2549;52.128;21.068;2023-03-01T11:50:47;21.55;;;8.88;;
5060;SDS011;2549;52.128;21.068;2023-03-01T11:53:36;14.38;;;7.90;;
5060;SDS011;2549;52.128;21.068;2023-03-01T12:01:52;19.23;;;8.60;;
5060;SDS011;2549;52.128;21.068;2023-03-01T12:10:22;15.38;;;8.20;;
5060;SDS011;2549;52.128;21.068;2023-03-01T12:12:58;14.80;;;7.63;;
5060;SDS011;2549;52.128;21.068;2023-03-01T12:19:15;15.20;;;8.25;;
5060;SDS011;2549;52.128;21.068;2023-03-01T12:24:40;12.70;;;7.57;;
5060;SDS011;2549;52.128;21.068;2023-03-01T12:27:23;10.50;;;6.65;;
5060;SDS011;2549;52.128;21.068;2023-03-01T12:37:53;13.35;;;8.27;;
5060;SDS011;2549;52.128;21.068;2023-03-01T12:43:46;13.27;;;7.57;;
5060;SDS011;2549;52.128;21.068;2023-03-01T12:47:13;17.92;;;6.70;;
5060;SDS011;2549;52.128;21.068;2023-03-01T12:49:19;18.98;;;8.25;;
5060;SDS011;2549;52.128;21.068;2023-03-01T12:52:49;15.15;;;7.32;;
5060;SDS011;2549;52.128;21.068;2023-03-01T12:54:58;13.35;;;7.80;;
5060;SDS011;2549;52.128;21.068;2023-03-01T12:57:31;12.95;;;6.75;;
5060;SDS011;2549;52.128;21.068;2023-03-01T13:00:24;14.93;;;8.15;;
5060;SDS011;2549;52.128;21.068;2023-03-01T13:05:56;22.48;;;8.38;;
5060;SDS011;2549;52.128;21.068;2023-03-01T13:11:18;12.68;;;7.30;;
5060;SDS011;2549;52.128;21.068;2023-03-01T13:13:47;15.98;;;7.40;;
5060;SDS011;2549;52.128;21.068;2023-03-01T13:16:39;17.08;;;8.75;;
5060;SDS011;2549;52.128;21.068;2023-03-01T13:19:16;16.75;;;8.50;;
5060;SDS011;2549;52.128;21.068;2023-03-01T13:21:44;10.35;;;7.43;;
5060;SDS011;2549;52.128;21.068;2023-03-01T13:27:27;16.30;;;8.52;;
5060;SDS011;2549;52.128;21.068;2023-03-01T13:29:59;13.18;;;8.50;;
5060;SDS011;2549;52.128;21.068;2023-03-01T13:32:30;14.55;;;9.15;;
5060;SDS011;2549;52.128;21.068;2023-03-01T13:37:45;14.00;;;8.00;;
5060;SDS011;2549;52.128;21.068;2023-03-01T13:42:45;15.00;;;7.97;;
5060;SDS011;2549;52.128;21.068;2023-03-01T13:45:40;13.07;;;8.02;;
5060;SDS011;2549;52.128;21.068;2023-03-01T13:48:16;13.13;;;7.80;;
5060;SDS011;2549;52.128;21.068;2023-03-01T13:51:05;11.75;;;7.00;;
5060;SDS011;2549;52.128;21.068;2023-03-01T13:53:40;14.65;;;7.40;;
5060;SDS011;2549;52.128;21.068;2023-03-01T13:56:15;12.25;;;7.70;;
5060;SDS011;2549;52.128;21.068;2023-03-01T13:58:55;13.10;;;7.72;;
5060;SDS011;2549;52.128;21.068;2023-03-01T14:01:34;14.20;;;7.53;;
5060;SDS011;2549;52.128;21.068;2023-03-01T14:04:02;16.15;;;8.10;;
5060;SDS011;2549;52.128;21.068;2023-03-01T14:06:43;18.08;;;8.40;;
5060;SDS011;2549;52.128;21.068;2023-03-01T14:09:24;14.60;;;8.05;;
5060;SDS011;2549;52.128;21.068;2023-03-01T14:14:45;12.63;;;7.30;;
5060;SDS011;2549;52.128;21.068;2023-03-01T14:17:21;12.63;;;7.65;;
5060;SDS011;2549;52.128;21.068;2023-03-01T14:19:58;11.23;;;7.35;;
5060;SDS011;2549;52.128;21.068;2023-03-01T14:22:28;18.83;;;8.23;;
5060;SDS011;2549;52.128;21.068;2023-03-01T14:25:06;14.88;;;9.30;;
5060;SDS011;2549;52.128;21.068;2023-03-01T14:27:45;16.33;;;8.13;;
5060;SDS011;2549;52.128;21.068;2023-03-01T14:30:24;13.52;;;7.43;;
5060;SDS011;2549;52.128;21.068;2023-03-01T14:33:01;16.42;;;8.40;;
5060;SDS011;2549;52.128;21.068;2023-03-01T14:35:34;17.35;;;8.35;;
5060;SDS011;2549;52.128;21.068;2023-03-01T14:38:02;18.02;;;9.30;;
5060;SDS011;2549;52.128;21.068;2023-03-01T14:40:30;19.73;;;8.90;;
5060;SDS011;2549;52.128;21.068;2023-03-01T14:43:01;15.55;;;8.80;;
5060;SDS011;2549;52.128;21.068;2023-03-01T14:45:35;20.25;;;9.77;;
5060;SDS011;2549;52.128;21.068;2023-03-01T14:48:04;22.50;;;9.10;;
5060;SDS011;2549;52.128;21.068;2023-03-01T14:50:33;17.27;;;9.68;;
5060;SDS011;2549;52.128;21.068;2023-03-01T14:53:04;20.05;;;10.55;;
5060;SDS011;2549;52.128;21.068;2023-03-01T14:58:02;16.40;;;9.10;;
5060;SDS011;2549;52.128;21.068;2023-03-01T15:00:31;18.00;;;9.60;;
5060;SDS011;2549;52.128;21.068;2023-03-01T15:03:02;18.10;;;9.38;;
5060;SDS011;2549;52.128;21.068;2023-03-01T15:05:36;17.65;;;8.73;;
5060;SDS011;2549;52.128;21.068;2023-03-01T15:08:03;18.55;;;9.60;;
5060;SDS011;2549;52.128;21.068;2023-03-01T15:10:33;15.63;;;8.75;;
5060;SDS011;2549;52.128;21.068;2023-03-01T15:13:21;20.55;;;10.05;;
5060;SDS011;2549;52.128;21.068;2023-03-01T15:15:51;17.30;;;9.30;;
5060;SDS011;2549;52.128;21.068;2023-03-01T15:18:28;28.73;;;9.52;;
5060;SDS011;2549;52.128;21.068;2023-03-01T15:20:56;23.55;;;10.38;;
5060;SDS011;2549;52.128;21.068;2023-03-01T15:23:33;19.40;;;9.27;;
5060;SDS011;2549;52.128;21.068;2023-03-01T15:26:00;20.20;;;10.45;;
5060;SDS011;2549;52.128;21.068;2023-03-01T15:28:28;18.83;;;9.85;;
5060;SDS011;2549;52.128;21.068;2023-03-01T15:31:14;23.30;;;11.55;;
5060;SDS011;2549;52.128;21.068;2023-03-01T15:33:44;24.73;;;9.93;;
5060;SDS011;2549;52.128;21.068;2023-03-01T15:36:47;22.25;;;10.73;;
5060;SDS011;2549;52.128;21.068;2023-03-01T15:45:10;20.85;;;10.15;;
5060;SDS011;2549;52.128;21.068;2023-03-01T15:47:38;20.92;;;10.95;;
5060;SDS011;2549;52.128;21.068;2023-03-01T15:50:26;17.05;;;9.80;;
5060;SDS011;2549;52.128;21.068;2023-03-01T15:53:04;20.83;;;8.85;;
5060;SDS011;2549;52.128;21.068;2023-03-01T15:55:34;22.40;;;9.27;;
5060;SDS011;2549;52.128;21.068;2023-03-01T16:00:42;24.50;;;9.70;;
5060;SDS011;2549;52.128;21.068;2023-03-01T16:03:25;23.48;;;9.85;;
5060;SDS011;2549;52.128;21.068;2023-03-01T16:05:52;16.23;;;10.13;;
5060;SDS011;2549;52.128;21.068;2023-03-01T16:08:20;18.00;;;10.07;;
5060;SDS011;2549;52.128;21.068;2023-03-01T16:10:47;18.77;;;8.27;;
5060;SDS011;2549;52.128;21.068;2023-03-01T16:13:16;19.05;;;9.27;;
5060;SDS011;2549;52.128;21.068;2023-03-01T16:15:43;18.38;;;10.00;;
5060;SDS011;2549;52.128;21.068;2023-03-01T16:18:10;15.38;;;9.07;;
5060;SDS011;2549;52.128;21.068;2023-03-01T16:20:38;18.73;;;9.90;;
5060;SDS011;2549;52.128;21.068;2023-03-01T16:23:07;21.48;;;10.75;;
5060;SDS011;2549;52.128;21.068;2023-03-01T16:25:35;17.52;;;9.55;;
5060;SDS011;2549;52.128;21.068;2023-03-01T16:28:02;21.88;;;9.45;;
5060;SDS011;2549;52.128;21.068;2023-03-01T16:30:35;16.90;;;8.85;;
5060;SDS011;2549;52.128;21.068;2023-03-01T16:33:06;24.13;;;10.23;;
5060;SDS011;2549;52.128;21.068;2023-03-01T16:35:54;20.88;;;9.38;;
5060;SDS011;2549;52.128;21.068;2023-03-01T16:38:21;17.02;;;10.25;;
5060;SDS011;2549;52.128;21.068;2023-03-01T16:40:49;16.58;;;9.27;;
5060;SDS011;2549;52.128;21.068;2023-03-01T16:43:17;19.52;;;9.43;;
5060;SDS011;2549;52.128;21.068;2023-03-01T16:45:44;18.00;;;8.40;;
5060;SDS011;2549;52.128;21.068;2023-03-01T16:48:12;26.80;;;8.63;;
5060;SDS011;2549;52.128;21.068;2023-03-01T16:50:39;17.70;;;9.70;;
5060;SDS011;2549;52.128;21.068;2023-03-01T16:53:07;17.70;;;9.68;;
5060;SDS011;2549;52.128;21.068;2023-03-01T16:55:34;19.33;;;9.70;;
5060;SDS011;2549;52.128;21.068;2023-03-01T16:58:01;15.13;;;9.65;;
5060;SDS011;2549;52.128;21.068;2023-03-01T17:00:28;18.45;;;9.32;;
5060;SDS011;2549;52.128;21.068;2023-03-01T17:02:55;19.42;;;9.45;;
5060;SDS011;2549;52.128;21.068;2023-03-01T17:05:24;18.90;;;9.07;;
5060;SDS011;2549;52.128;21.068;2023-03-01T17:07:52;18.67;;;9.82;;
5060;SDS011;2549;52.128;21.068;2023-03-01T17:10:22;18.88;;;10.13;;